Time;durP1;ratioP1;P1;durP2;ratioP2;P2;SDS_P1;SDS_P2;PMS_P1;PMS_P2;Temp;Humidity;BMP_temperature;BMP_pressure;BME280_temperature;BME280_humidity;BME280_pressure;Samples;Min_cycle;Max_cycle;Signal;HPM_P1;HPM_P2
2022/11/30 00:01:35;;;;;;;35.50;18.77;;;;;;;;;;5030404;28;20465;-75
2022/11/30 00:04:01;;;;;;;34.77;19.17;;;;;;;;;;5031267;28;20424;-75
2022/11/30 00:06:28;;;;;;;34.53;19.10;;;;;;;;;;5013308;28;20925;-75
2022/11/30 00:08:55;;;;;;;31.50;17.73;;;;;;;;;;5013207;28;20434;-75
2022/11/30 00:11:22;;;;;;;36.97;19.57;;;;;;;;;;5013146;28;20449;-75
2022/11/30 00:13:49;;;;;;;32.40;18.10;;;;;;;;;;5029155;28;20860;-75
2022/11/30 00:16:17;;;;;;;34.23;19.17;;;;;;;;;;5030996;28;20435;-75
2022/11/30 00:18:44;;;;;;;34.03;19.07;;;;;;;;;;5030720;28;20427;-75
2022/11/30 00:21:12;;;;;;;34.83;18.33;;;;;;;;;;5004145;28;20444;-76
2022/11/30 00:23:38;;;;;;;34.63;19.13;;;;;;;;;;5008089;28;20569;-75
2022/11/30 00:26:06;;;;;;;33.43;18.43;;;;;;;;;;5010669;28;21133;-75
2022/11/30 00:28:33;;;;;;;34.97;18.87;;;;;;;;;;4993461;28;20465;-75
2022/11/30 00:31:00;;;;;;;33.73;19.23;;;;;;;;;;4993749;28;20953;-75
2022/11/30 00:33:28;;;;;;;31.93;17.60;;;;;;;;;;4992919;28;20995;-75
2022/11/30 00:35:58;;;;;;;35.70;19.10;;;;;;;;;;4993241;28;21032;-75
2022/11/30 00:38:26;;;;;;;33.83;18.57;;;;;;;;;;4977588;28;20452;-75
2022/11/30 00:40:53;;;;;;;31.70;18.13;;;;;;;;;;5009884;28;20498;-75
2022/11/30 00:43:20;;;;;;;35.70;18.80;;;;;;;;;;4993827;28;20474;-75
2022/11/30 00:45:46;;;;;;;36.93;19.40;;;;;;;;;;4976672;28;21025;-75
2022/11/30 00:48:13;;;;;;;36.67;18.70;;;;;;;;;;5010208;28;20437;-75
2022/11/30 00:50:40;;;;;;;30.53;17.47;;;;;;;;;;5010247;28;20460;-75
2022/11/30 00:53:06;;;;;;;34.77;18.07;;;;;;;;;;4995915;28;20957;-75
2022/11/30 00:55:33;;;;;;;33.70;18.53;;;;;;;;;;5029785;28;20434;-75
2022/11/30 00:58:17;;;;;;;34.07;18.50;;;;;;;;;;5015258;28;20425;-75
2022/11/30 01:00:44;;;;;;;35.73;19.73;;;;;;;;;;4996272;28;20896;-75
2022/11/30 01:03:11;;;;;;;31.90;18.57;;;;;;;;;;4996317;28;20481;-75
2022/11/30 01:05:38;;;;;;;34.83;18.83;;;;;;;;;;5029534;28;20466;-75
2022/11/30 01:08:06;;;;;;;36.63;19.53;;;;;;;;;;5025077;28;20462;-75
2022/11/30 01:10:33;;;;;;;35.03;19.07;;;;;;;;;;5009586;28;20425;-75
2022/11/30 01:13:00;;;;;;;34.90;19.90;;;;;;;;;;5020728;28;20434;-75
2022/11/30 01:15:26;;;;;;;33.50;17.93;;;;;;;;;;5012035;28;20545;-75
2022/11/30 01:18:10;;;;;;;38.33;18.83;;;;;;;;;;5029446;28;20426;-75
2022/11/30 01:20:41;;;;;;;34.77;19.33;;;;;;;;;;5011562;28;20946;-75
2022/11/30 01:23:25;;;;;;;32.83;18.20;;;;;;;;;;5013858;28;20476;-75
2022/11/30 01:25:52;;;;;;;34.77;18.40;;;;;;;;;;5029198;28;21171;-75
2022/11/30 01:28:19;;;;;;;33.97;19.63;;;;;;;;;;5006129;28;20443;-75
2022/11/30 01:30:54;;;;;;;36.67;18.80;;;;;;;;;;4990146;28;20518;-75
2022/11/30 01:33:20;;;;;;;34.77;18.83;;;;;;;;;;5009766;28;20423;-75
2022/11/30 01:35:47;;;;;;;32.03;18.37;;;;;;;;;;5009848;28;20431;-75
2022/11/30 01:38:14;;;;;;;33.60;17.97;;;;;;;;;;5008123;28;20434;-75
2022/11/30 01:40:48;;;;;;;34.30;19.13;;;;;;;;;;4992089;28;20423;-75
2022/11/30 01:43:14;;;;;;;33.30;18.27;;;;;;;;;;4992093;28;20482;-75
2022/11/30 01:45:41;;;;;;;35.43;19.57;;;;;;;;;;4992122;28;20482;-76
2022/11/30 01:48:07;;;;;;;33.20;18.87;;;;;;;;;;4991806;28;20440;-75
2022/11/30 01:50:34;;;;;;;36.40;19.00;;;;;;;;;;4991398;28;20806;-75
2022/11/30 01:53:01;;;;;;;37.97;19.70;;;;;;;;;;4991929;28;20444;-75
2022/11/30 01:55:27;;;;;;;37.80;20.50;;;;;;;;;;4991816;28;21045;-75
2022/11/30 01:57:55;;;;;;;33.80;18.43;;;;;;;;;;5007826;28;20443;-75
2022/11/30 02:00:40;;;;;;;35.77;19.73;;;;;;;;;;4994569;28;20932;-75
2022/11/30 02:03:24;;;;;;;34.67;19.03;;;;;;;;;;4991525;28;20486;-75
2022/11/30 02:05:51;;;;;;;35.40;19.87;;;;;;;;;;5009107;28;20934;-75
2022/11/30 02:08:17;;;;;;;34.73;18.10;;;;;;;;;;4975476;28;20460;-75
2022/11/30 02:10:46;;;;;;;34.33;18.17;;;;;;;;;;4991459;28;20925;-75
2022/11/30 02:13:15;;;;;;;31.33;18.17;;;;;;;;;;5005021;28;20462;-75
2022/11/30 02:15:51;;;;;;;32.20;17.43;;;;;;;;;;5028382;28;20975;-75
2022/11/30 02:18:23;;;;;;;35.20;19.37;;;;;;;;;;5027189;28;20446;-75
2022/11/30 02:21:25;;;;;;;30.90;17.53;;;;;;;;;;5010820;28;20422;-75
2022/11/30 02:24:12;;;;;;;33.20;18.10;;;;;;;;;;4934434;29;21096;-75
2022/11/30 02:26:38;;;;;;;36.03;18.67;;;;;;;;;;5021600;28;20952;-75
2022/11/30 02:29:09;;;;;;;33.17;19.53;;;;;;;;;;5028432;28;20434;-75
2022/11/30 02:31:41;;;;;;;33.63;17.87;;;;;;;;;;4994008;28;20444;-75
2022/11/30 02:34:25;;;;;;;36.43;17.10;;;;;;;;;;5013789;28;20433;-75
2022/11/30 02:36:53;;;;;;;33.67;17.30;;;;;;;;;;4993935;28;20532;-75
2022/11/30 02:39:37;;;;;;;33.90;17.67;;;;;;;;;;5013276;28;20418;-75
2022/11/30 02:42:04;;;;;;;28.80;16.60;;;;;;;;;;5010360;28;20512;-75
2022/11/30 02:44:50;;;;;;;29.77;17.47;;;;;;;;;;5013353;28;20808;-75
2022/11/30 02:47:26;;;;;;;34.53;17.60;;;;;;;;;;5009886;28;20438;-75
2022/11/30 02:50:13;;;;;;;31.37;17.43;;;;;;;;;;5006606;28;20424;-75
2022/11/30 02:52:40;;;;;;;33.20;19.00;;;;;;;;;;5010698;28;20798;-75
2022/11/30 02:55:24;;;;;;;31.93;17.87;;;;;;;;;;5028176;28;20417;-75
2022/11/30 02:57:51;;;;;;;30.33;16.87;;;;;;;;;;4994127;28;20473;-75
2022/11/30 03:00:18;;;;;;;31.80;17.37;;;;;;;;;;5027979;28;20520;-75
2022/11/30 03:02:44;;;;;;;31.87;17.57;;;;;;;;;;5028085;28;20565;-75
2022/11/30 03:05:11;;;;;;;31.90;17.80;;;;;;;;;;5010310;28;20449;-75
2022/11/30 03:07:55;;;;;;;31.50;17.47;;;;;;;;;;5012937;28;20417;-75
2022/11/30 03:10:22;;;;;;;33.43;18.60;;;;;;;;;;4995149;28;20449;-75
2022/11/30 03:13:06;;;;;;;33.67;17.07;;;;;;;;;;4989631;28;20429;-75
2022/11/30 03:15:33;;;;;;;31.23;17.73;;;;;;;;;;5010244;28;20458;-75
2022/11/30 03:18:17;;;;;;;30.73;17.80;;;;;;;;;;5027618;28;20410;-75
2022/11/30 03:20:44;;;;;;;30.97;16.97;;;;;;;;;;5028038;28;20833;-75
2022/11/30 03:23:10;;;;;;;35.10;18.00;;;;;;;;;;5027817;28;20470;-75
2022/11/30 03:25:37;;;;;;;32.33;17.33;;;;;;;;;;5027629;28;20463;-75
2022/11/30 03:28:04;;;;;;;31.10;16.83;;;;;;;;;;5012937;28;20505;-73
2022/11/30 03:30:30;;;;;;;30.43;17.40;;;;;;;;;;5008340;28;21392;-74
2022/11/30 03:32:57;;;;;;;32.27;17.43;;;;;;;;;;4990187;28;20454;-74
2022/11/30 03:35:23;;;;;;;32.90;17.40;;;;;;;;;;4991143;28;20460;-74
2022/11/30 03:37:50;;;;;;;32.87;17.83;;;;;;;;;;4990927;28;21370;-74
2022/11/30 03:40:17;;;;;;;32.87;17.30;;;;;;;;;;4990982;28;20813;-74
2022/11/30 03:42:44;;;;;;;31.23;17.70;;;;;;;;;;4990911;28;20970;-74
2022/11/30 03:45:28;;;;;;;34.13;17.90;;;;;;;;;;4993403;28;20427;-74
2022/11/30 03:47:54;;;;;;;32.83;17.80;;;;;;;;;;5010139;28;20886;-74
2022/11/30 03:50:38;;;;;;;31.93;18.57;;;;;;;;;;5011803;28;20943;-74
2022/11/30 03:53:05;;;;;;;35.30;18.47;;;;;;;;;;4994497;28;20542;-74
2022/11/30 03:55:32;;;;;;;34.77;17.87;;;;;;;;;;5011664;28;20435;-74
2022/11/30 03:57:58;;;;;;;32.43;17.73;;;;;;;;;;5011659;28;21035;-74
2022/11/30 04:00:25;;;;;;;31.93;17.23;;;;;;;;;;5012341;28;20446;-74
2022/11/30 04:03:09;;;;;;;31.50;17.67;;;;;;;;;;5011593;28;20539;-74
2022/11/30 04:05:35;;;;;;;37.87;18.27;;;;;;;;;;4994209;28;20426;-74
2022/11/30 04:08:02;;;;;;;34.50;19.33;;;;;;;;;;5011426;28;20566;-74
2022/11/30 04:10:29;;;;;;;32.47;18.70;;;;;;;;;;4978191;28;21029;-74
2022/11/30 04:12:55;;;;;;;34.57;18.43;;;;;;;;;;5022165;28;20498;-74
2022/11/30 04:15:39;;;;;;;33.80;18.37;;;;;;;;;;5013473;28;20918;-74
2022/11/30 04:18:06;;;;;;;34.63;18.73;;;;;;;;;;5030860;28;20428;-74
2022/11/30 04:20:53;;;;;;;32.57;18.10;;;;;;;;;;5030945;28;20418;-74
2022/11/30 04:23:20;;;;;;;33.63;17.80;;;;;;;;;;5013482;28;20481;-74
2022/11/30 04:26:09;;;;;;;31.03;17.03;;;;;;;;;;4999315;28;20424;-74
2022/11/30 04:28:36;;;;;;;30.97;16.30;;;;;;;;;;5010287;28;20447;-74
2022/11/30 04:31:05;;;;;;;32.63;17.33;;;;;;;;;;5012909;28;20501;-74
2022/11/30 04:33:32;;;;;;;34.00;18.07;;;;;;;;;;5030720;28;20436;-74
2022/11/30 04:35:59;;;;;;;32.63;17.63;;;;;;;;;;5013553;28;20443;-74
2022/11/30 04:38:26;;;;;;;32.77;18.43;;;;;;;;;;5013074;28;20797;-74
2022/11/30 04:40:53;;;;;;;34.27;17.83;;;;;;;;;;5011942;28;20494;-74
2022/11/30 04:43:19;;;;;;;33.70;18.80;;;;;;;;;;5031015;28;20515;-74
2022/11/30 04:45:46;;;;;;;30.17;16.93;;;;;;;;;;5012967;28;20429;-74
2022/11/30 04:48:13;;;;;;;34.17;17.90;;;;;;;;;;5012649;28;20534;-74
2022/11/30 04:50:39;;;;;;;31.33;17.60;;;;;;;;;;5029113;28;20484;-74
2022/11/30 04:53:06;;;;;;;29.97;17.57;;;;;;;;;;5011453;28;20508;-74
2022/11/30 04:55:33;;;;;;;32.80;17.77;;;;;;;;;;5030022;28;20467;-74
2022/11/30 04:57:59;;;;;;;32.77;17.73;;;;;;;;;;5012723;28;20505;-74
2022/11/30 05:00:26;;;;;;;32.57;18.43;;;;;;;;;;5010878;28;20904;-74
2022/11/30 05:02:54;;;;;;;30.53;17.43;;;;;;;;;;5012585;28;20442;-74
2022/11/30 05:05:21;;;;;;;33.03;18.20;;;;;;;;;;4996253;28;20841;-74
2022/11/30 05:07:48;;;;;;;34.87;18.40;;;;;;;;;;5012273;28;20985;-74
2022/11/30 05:10:15;;;;;;;38.00;19.87;;;;;;;;;;4995863;28;20438;-74
2022/11/30 05:12:42;;;;;;;33.80;18.50;;;;;;;;;;5028804;28;20484;-74
2022/11/30 05:15:09;;;;;;;32.57;18.27;;;;;;;;;;5012117;28;20424;-74
2022/11/30 05:17:36;;;;;;;37.73;18.73;;;;;;;;;;5022429;28;20456;-72
2022/11/30 05:20:03;;;;;;;35.00;19.83;;;;;;;;;;5002744;28;20471;-72
2022/11/30 05:22:30;;;;;;;34.27;18.33;;;;;;;;;;5041410;28;20437;-73
2022/11/30 05:24:57;;;;;;;38.63;19.23;;;;;;;;;;5021479;28;20833;-72
2022/11/30 05:27:23;;;;;;;36.93;19.97;;;;;;;;;;5027915;28;20453;-72
2022/11/30 05:29:50;;;;;;;34.50;18.53;;;;;;;;;;5033438;28;21347;-71
2022/11/30 05:32:16;;;;;;;36.33;20.07;;;;;;;;;;5019633;28;20994;-72
2022/11/30 05:34:43;;;;;;;33.27;18.20;;;;;;;;;;5006941;28;21380;-73
2022/11/30 05:37:17;;;;;;;34.73;18.47;;;;;;;;;;5026325;28;20514;-72
2022/11/30 05:39:44;;;;;;;34.90;18.13;;;;;;;;;;5006962;28;20500;-73
2022/11/30 05:42:10;;;;;;;34.13;18.30;;;;;;;;;;5014065;28;20487;-74
2022/11/30 05:44:37;;;;;;;35.83;18.10;;;;;;;;;;5028982;28;20536;-74
2022/11/30 05:47:03;;;;;;;31.83;17.73;;;;;;;;;;5032048;28;20533;-75
2022/11/30 05:49:30;;;;;;;38.07;19.77;;;;;;;;;;5012238;28;21114;-75
2022/11/30 05:51:57;;;;;;;44.30;20.80;;;;;;;;;;5010614;28;20786;-74
2022/11/30 05:54:24;;;;;;;37.63;18.07;;;;;;;;;;5027434;28;20430;-74
2022/11/30 05:57:08;;;;;;;36.33;19.37;;;;;;;;;;5036467;28;20418;-74
2022/11/30 05:59:36;;;;;;;36.00;18.40;;;;;;;;;;4989207;28;21000;-75
2022/11/30 06:02:02;;;;;;;37.70;18.80;;;;;;;;;;5028841;28;20474;-74
2022/11/30 06:04:29;;;;;;;37.60;19.43;;;;;;;;;;5029514;28;20479;-77
2022/11/30 06:06:56;;;;;;;34.87;18.63;;;;;;;;;;5033656;28;20433;-72
2022/11/30 06:09:23;;;;;;;36.77;19.00;;;;;;;;;;5043948;28;20512;-72
2022/11/30 06:11:50;;;;;;;35.60;18.97;;;;;;;;;;5017480;28;20486;-73
2022/11/30 06:14:17;;;;;;;32.50;17.93;;;;;;;;;;5039601;28;20429;-74
2022/11/30 06:16:44;;;;;;;34.40;18.10;;;;;;;;;;5030290;28;20458;-76
2022/11/30 06:19:11;;;;;;;34.87;17.83;;;;;;;;;;5005923;28;20513;-75
2022/11/30 06:21:38;;;;;;;32.67;17.90;;;;;;;;;;4991671;28;20483;-76
2022/11/30 06:24:06;;;;;;;32.07;17.10;;;;;;;;;;5040427;28;20566;-74
2022/11/30 06:26:33;;;;;;;34.03;18.53;;;;;;;;;;5034677;28;21187;-74
2022/11/30 06:29:00;;;;;;;31.10;17.90;;;;;;;;;;5025473;28;20443;-74
2022/11/30 06:31:27;;;;;;;36.23;18.67;;;;;;;;;;5032542;28;20859;-76
2022/11/30 06:33:57;;;;;;;34.97;19.03;;;;;;;;;;5009082;28;20457;-74
2022/11/30 06:36:24;;;;;;;35.43;19.47;;;;;;;;;;5028962;28;20500;-75
2022/11/30 06:38:50;;;;;;;36.20;19.43;;;;;;;;;;5011568;28;21228;-74
2022/11/30 06:41:17;;;;;;;33.97;18.10;;;;;;;;;;4994425;28;20475;-75
2022/11/30 06:43:44;;;;;;;34.20;18.97;;;;;;;;;;5028199;28;20462;-74
2022/11/30 06:46:10;;;;;;;36.93;19.37;;;;;;;;;;5028796;28;20430;-75
2022/11/30 06:48:37;;;;;;;34.77;18.67;;;;;;;;;;5028741;28;20446;-77
2022/11/30 06:51:04;;;;;;;37.07;19.03;;;;;;;;;;5010458;28;20434;-75
2022/11/30 06:53:32;;;;;;;36.40;18.67;;;;;;;;;;5008415;28;20457;-74
2022/11/30 06:56:02;;;;;;;38.47;19.97;;;;;;;;;;5028192;28;20775;-75
2022/11/30 06:58:35;;;;;;;35.50;18.97;;;;;;;;;;5043874;28;20519;-73
2022/11/30 07:01:20;;;;;;;38.30;19.20;;;;;;;;;;5045464;28;20418;-75
2022/11/30 07:03:47;;;;;;;37.33;19.10;;;;;;;;;;5038502;28;20869;-75
2022/11/30 07:06:31;;;;;;;39.13;20.03;;;;;;;;;;5027095;28;20512;-75
2022/11/30 07:08:58;;;;;;;39.17;19.10;;;;;;;;;;5036093;28;20429;-74
2022/11/30 07:11:24;;;;;;;36.90;20.27;;;;;;;;;;5033656;28;20472;-76
2022/11/30 07:13:52;;;;;;;36.30;19.37;;;;;;;;;;5027536;28;20763;-74
2022/11/30 07:16:18;;;;;;;35.57;19.73;;;;;;;;;;5006975;28;20476;-74
2022/11/30 07:18:45;;;;;;;38.83;19.33;;;;;;;;;;5022770;28;20569;-73
2022/11/30 07:21:13;;;;;;;34.30;19.90;;;;;;;;;;5025110;28;20434;-76
2022/11/30 07:26:27;;;;;;;38.77;19.23;;;;;;;;;;5034555;28;20520;-72
2022/11/30 07:28:56;;;;;;;34.33;17.97;;;;;;;;;;5045375;28;20499;-73
2022/11/30 07:31:25;;;;;;;35.87;19.00;;;;;;;;;;5037163;28;20440;-73
2022/11/30 07:33:52;;;;;;;35.90;18.33;;;;;;;;;;5041487;28;20841;-74
2022/11/30 07:36:19;;;;;;;32.67;17.80;;;;;;;;;;5013723;28;20443;-76
2022/11/30 07:38:46;;;;;;;33.47;18.63;;;;;;;;;;5046642;28;20447;-74
2022/11/30 07:41:12;;;;;;;33.37;18.13;;;;;;;;;;5048147;28;20462;-74
2022/11/30 07:43:39;;;;;;;33.33;17.93;;;;;;;;;;5046892;28;20453;-75
2022/11/30 07:46:06;;;;;;;34.53;17.10;;;;;;;;;;4999738;28;20441;-75
2022/11/30 07:48:34;;;;;;;31.57;17.57;;;;;;;;;;5000276;28;20465;-76
2022/11/30 07:51:01;;;;;;;33.97;18.03;;;;;;;;;;5038219;28;21034;-75
2022/11/30 07:53:30;;;;;;;36.23;17.57;;;;;;;;;;4994223;28;20454;-74
2022/11/30 07:56:23;;;;;;;29.53;17.20;;;;;;;;;;5027182;28;20446;-76
2022/11/30 07:58:50;;;;;;;32.97;17.83;;;;;;;;;;5024721;28;20864;-76
2022/11/30 08:01:36;;;;;;;34.40;17.37;;;;;;;;;;5042687;28;20420;-76
2022/11/30 08:04:02;;;;;;;33.60;17.40;;;;;;;;;;5009118;28;20502;-71
2022/11/30 08:06:29;;;;;;;32.63;17.37;;;;;;;;;;5041176;28;21186;-75
2022/11/30 08:08:57;;;;;;;33.90;17.03;;;;;;;;;;5037422;28;20426;-76
2022/11/30 08:11:24;;;;;;;31.90;17.50;;;;;;;;;;5012556;28;20449;-74
2022/11/30 08:14:10;;;;;;;32.53;17.73;;;;;;;;;;5033678;28;20519;-75
2022/11/30 08:16:38;;;;;;;34.67;17.57;;;;;;;;;;5029237;28;20445;-76
2022/11/30 08:19:22;;;;;;;29.93;17.57;;;;;;;;;;5042912;28;20943;-72
2022/11/30 08:21:49;;;;;;;31.77;17.17;;;;;;;;;;5046797;28;20450;-72
2022/11/30 08:24:16;;;;;;;36.43;18.73;;;;;;;;;;5045786;28;20476;-70
2022/11/30 08:26:43;;;;;;;33.40;17.70;;;;;;;;;;5026185;28;21025;-71
2022/11/30 08:29:10;;;;;;;35.73;17.77;;;;;;;;;;5019427;28;20463;-72
2022/11/30 08:31:37;;;;;;;32.60;17.40;;;;;;;;;;5037029;28;20437;-70
2022/11/30 08:34:05;;;;;;;32.47;16.90;;;;;;;;;;5010881;28;20534;-71
2022/11/30 08:36:32;;;;;;;38.47;19.63;;;;;;;;;;5024029;28;20430;-71
2022/11/30 08:39:01;;;;;;;33.43;18.27;;;;;;;;;;5027558;28;20449;-72
2022/11/30 08:41:29;;;;;;;34.90;18.53;;;;;;;;;;5028706;28;20501;-70
2022/11/30 08:43:57;;;;;;;36.10;19.37;;;;;;;;;;5028689;28;20438;-72
2022/11/30 08:46:24;;;;;;;35.00;18.47;;;;;;;;;;5020266;28;20444;-73
2022/11/30 08:49:11;;;;;;;32.23;17.77;;;;;;;;;;5012250;28;20432;-71
2022/11/30 08:51:48;;;;;;;30.60;17.13;;;;;;;;;;5016747;28;20548;-72
2022/11/30 08:54:35;;;;;;;36.20;19.00;;;;;;;;;;5011113;28;20438;-72
2022/11/30 08:57:02;;;;;;;32.63;18.33;;;;;;;;;;5034255;28;20433;-69
2022/11/30 08:59:30;;;;;;;35.43;18.00;;;;;;;;;;5027051;28;20458;-69
2022/11/30 09:01:56;;;;;;;34.53;18.40;;;;;;;;;;5017783;28;20524;-70
2022/11/30 09:04:40;;;;;;;34.13;18.40;;;;;;;;;;5035761;28;20960;-71
2022/11/30 09:07:08;;;;;;;38.40;18.17;;;;;;;;;;5025784;28;20439;-70
2022/11/30 09:09:35;;;;;;;36.80;18.63;;;;;;;;;;5026688;28;20442;-74
2022/11/30 09:12:02;;;;;;;39.20;19.27;;;;;;;;;;5014350;28;20612;-71
2022/11/30 09:14:29;;;;;;;34.13;19.17;;;;;;;;;;5009596;28;20438;-71
2022/11/30 09:16:56;;;;;;;39.07;19.40;;;;;;;;;;5032935;28;20433;-72
2022/11/30 09:19:24;;;;;;;36.37;18.50;;;;;;;;;;5026932;28;20939;-73
2022/11/30 09:21:51;;;;;;;35.30;18.43;;;;;;;;;;5016419;28;20441;-73
2022/11/30 09:24:19;;;;;;;37.87;19.57;;;;;;;;;;5045139;28;20477;-76
2022/11/30 09:26:46;;;;;;;33.60;19.07;;;;;;;;;;5030303;28;20441;-72
2022/11/30 09:29:15;;;;;;;37.07;19.57;;;;;;;;;;5024822;28;20485;-69
2022/11/30 09:31:43;;;;;;;35.07;19.13;;;;;;;;;;5009532;28;20434;-71
2022/11/30 09:34:10;;;;;;;37.57;19.07;;;;;;;;;;5028216;28;20447;-69
2022/11/30 09:36:38;;;;;;;35.53;18.80;;;;;;;;;;5035890;28;20427;-72
2022/11/30 09:39:05;;;;;;;36.97;19.80;;;;;;;;;;5026225;28;21317;-73
2022/11/30 09:41:35;;;;;;;38.30;19.83;;;;;;;;;;5025819;28;20469;-70
2022/11/30 09:44:21;;;;;;;37.13;19.53;;;;;;;;;;5045809;28;20449;-70
2022/11/30 09:47:18;;;;;;;37.90;19.93;;;;;;;;;;5042476;28;20485;-72
2022/11/30 09:49:45;;;;;;;42.57;20.57;;;;;;;;;;5008676;28;20450;-72
2022/11/30 09:52:36;;;;;;;40.43;20.43;;;;;;;;;;5017732;28;20429;-72
2022/11/30 09:55:06;;;;;;;41.23;20.63;;;;;;;;;;5037128;28;20447;-69
2022/11/30 09:57:52;;;;;;;38.27;19.67;;;;;;;;;;4997752;28;20428;-70
2022/11/30 10:00:20;;;;;;;39.47;21.57;;;;;;;;;;5027776;28;20970;-69
2022/11/30 10:03:05;;;;;;;38.53;20.50;;;;;;;;;;5038375;28;20494;-72
2022/11/30 10:05:44;;;;;;;37.93;20.20;;;;;;;;;;5029324;28;21074;-69
2022/11/30 10:08:20;;;;;;;40.40;20.93;;;;;;;;;;5024940;28;21120;-71
2022/11/30 10:11:09;;;;;;;37.30;20.17;;;;;;;;;;5035542;28;20429;-70
2022/11/30 10:14:03;;;;;;;40.93;20.77;;;;;;;;;;5042770;28;21316;-69
2022/11/30 10:16:40;;;;;;;40.20;19.90;;;;;;;;;;5044837;28;20440;-71
2022/11/30 10:19:43;;;;;;;38.37;19.50;;;;;;;;;;5043408;28;20441;-69
2022/11/30 10:22:12;;;;;;;37.40;19.93;;;;;;;;;;5045463;28;20494;-71
2022/11/30 10:24:40;;;;;;;33.93;19.47;;;;;;;;;;5036981;28;20478;-69
2022/11/30 10:27:30;;;;;;;35.90;19.33;;;;;;;;;;4995567;28;20476;-69
2022/11/30 10:29:56;;;;;;;42.87;21.97;;;;;;;;;;5024059;28;20820;-71
2022/11/30 10:32:25;;;;;;;38.37;19.93;;;;;;;;;;5045544;28;20434;-68
2022/11/30 10:34:53;;;;;;;34.90;19.47;;;;;;;;;;5027693;28;20429;-68
2022/11/30 10:37:41;;;;;;;34.57;19.30;;;;;;;;;;5024534;28;20980;-70
2022/11/30 10:40:31;;;;;;;42.07;20.23;;;;;;;;;;5011831;28;20437;-71
2022/11/30 10:43:02;;;;;;;36.70;20.33;;;;;;;;;;5030315;28;20561;-71
2022/11/30 10:45:29;;;;;;;38.07;19.80;;;;;;;;;;5038823;28;20863;-71
2022/11/30 10:48:06;;;;;;;36.83;19.60;;;;;;;;;;5007823;28;20529;-71
2022/11/30 10:50:33;;;;;;;38.73;20.13;;;;;;;;;;5012272;28;20441;-72
2022/11/30 10:53:00;;;;;;;41.97;20.47;;;;;;;;;;5010125;28;20442;-72
2022/11/30 10:55:28;;;;;;;38.43;19.97;;;;;;;;;;5011534;28;20449;-72
2022/11/30 10:58:01;;;;;;;37.97;19.80;;;;;;;;;;5018022;28;20489;-72
2022/11/30 11:00:28;;;;;;;36.10;19.60;;;;;;;;;;5032821;28;20795;-71
2022/11/30 11:02:54;;;;;;;37.97;20.33;;;;;;;;;;5006150;28;20445;-70
2022/11/30 11:05:21;;;;;;;36.03;18.83;;;;;;;;;;5028380;28;20477;-70
2022/11/30 11:07:48;;;;;;;38.23;19.93;;;;;;;;;;5043361;28;20948;-71
2022/11/30 11:10:15;;;;;;;38.47;19.97;;;;;;;;;;5051807;28;20486;-69
2022/11/30 11:12:46;;;;;;;39.20;20.83;;;;;;;;;;5049318;28;20437;-79
2022/11/30 11:15:15;;;;;;;37.30;19.67;;;;;;;;;;5014883;28;20532;-71
2022/11/30 11:17:42;;;;;;;36.37;19.37;;;;;;;;;;5039611;28;20443;-69
2022/11/30 11:20:44;;;;;;;38.90;21.03;;;;;;;;;;5029905;28;20508;-70
2022/11/30 11:23:21;;;;;;;40.47;19.13;;;;;;;;;;4980368;28;21327;-70
2022/11/30 11:25:49;;;;;;;36.67;19.20;;;;;;;;;;5003845;28;20521;-70
2022/11/30 11:28:34;;;;;;;41.13;20.07;;;;;;;;;;4997432;28;20486;-71
2022/11/30 11:31:11;;;;;;;37.90;19.03;;;;;;;;;;5021309;28;20480;-72
2022/11/30 11:33:38;;;;;;;36.50;18.83;;;;;;;;;;5045463;28;20445;-73
2022/11/30 11:36:05;;;;;;;38.47;19.67;;;;;;;;;;5046697;28;20438;-72
2022/11/30 11:38:41;;;;;;;41.37;19.10;;;;;;;;;;5047628;28;20468;-74
2022/11/30 11:41:17;;;;;;;37.53;19.77;;;;;;;;;;5029498;28;20481;-74
2022/11/30 11:43:59;;;;;;;40.07;20.43;;;;;;;;;;5041005;28;20433;-72
2022/11/30 11:46:56;;;;;;;40.67;18.93;;;;;;;;;;5047158;28;20908;-74
2022/11/30 11:49:24;;;;;;;40.20;20.37;;;;;;;;;;4998388;28;21027;-72
2022/11/30 11:52:09;;;;;;;42.03;20.93;;;;;;;;;;5049896;28;20446;-71
2022/11/30 11:54:49;;;;;;;41.40;21.33;;;;;;;;;;5052215;28;20445;-75
2022/11/30 11:57:16;;;;;;;40.23;21.33;;;;;;;;;;5018526;28;20445;-72
2022/11/30 11:59:42;;;;;;;42.40;21.73;;;;;;;;;;5017405;28;20486;-72
2022/11/30 12:02:19;;;;;;;40.63;20.67;;;;;;;;;;5039300;28;20511;-73
2022/11/30 12:04:48;;;;;;;37.90;20.60;;;;;;;;;;5011857;28;21199;-73
2022/11/30 12:07:26;;;;;;;37.83;20.20;;;;;;;;;;5023900;28;20805;-74
2022/11/30 12:10:12;;;;;;;43.97;22.43;;;;;;;;;;5035732;28;20459;-75
2022/11/30 12:12:59;;;;;;;41.73;20.80;;;;;;;;;;5027510;28;20447;-73
2022/11/30 12:15:37;;;;;;;42.90;20.63;;;;;;;;;;5017705;28;20473;-75
2022/11/30 12:18:07;;;;;;;35.53;19.57;;;;;;;;;;5011189;28;20442;-74
2022/11/30 12:20:42;;;;;;;42.33;21.07;;;;;;;;;;5033478;28;20460;-74
2022/11/30 12:23:28;;;;;;;38.10;19.90;;;;;;;;;;5036924;28;20496;-73
2022/11/30 12:26:04;;;;;;;43.23;21.67;;;;;;;;;;5032635;28;20466;-74
2022/11/30 12:28:46;;;;;;;42.37;21.23;;;;;;;;;;5032882;28;20453;-74
2022/11/30 12:31:53;;;;;;;42.03;21.90;;;;;;;;;;5015354;28;21100;-76
2022/11/30 12:34:23;;;;;;;43.90;21.50;;;;;;;;;;4985288;28;21071;-76
2022/11/30 12:37:07;;;;;;;43.13;21.47;;;;;;;;;;5034401;28;20449;-76
2022/11/30 12:39:46;;;;;;;42.67;20.43;;;;;;;;;;5008284;28;20531;-70
2022/11/30 12:42:14;;;;;;;41.43;21.73;;;;;;;;;;5026893;28;20502;-73
2022/11/30 12:44:49;;;;;;;46.10;22.40;;;;;;;;;;5047012;28;20444;-73
2022/11/30 12:47:26;;;;;;;42.10;21.90;;;;;;;;;;5032692;28;20460;-71
2022/11/30 12:50:11;;;;;;;40.90;20.70;;;;;;;;;;5028822;28;20424;-71
2022/11/30 12:52:41;;;;;;;44.70;23.00;;;;;;;;;;5040908;28;20440;-73
2022/11/30 12:55:17;;;;;;;43.97;22.90;;;;;;;;;;4995207;28;20469;-73
2022/11/30 12:57:44;;;;;;;42.77;22.33;;;;;;;;;;5007115;28;20459;-74
2022/11/30 13:00:21;;;;;;;41.13;20.57;;;;;;;;;;5025856;28;20513;-75
2022/11/30 13:03:06;;;;;;;43.70;21.83;;;;;;;;;;5004359;28;20437;-76
2022/11/30 13:05:38;;;;;;;39.30;21.80;;;;;;;;;;5029211;28;20467;-73
2022/11/30 13:08:30;;;;;;;43.10;21.83;;;;;;;;;;5016907;28;20439;-77
2022/11/30 13:11:02;;;;;;;40.03;19.83;;;;;;;;;;5026415;28;20525;-76
2022/11/30 13:13:29;;;;;;;41.37;21.20;;;;;;;;;;5036621;28;20464;-74
2022/11/30 13:15:56;;;;;;;44.07;22.87;;;;;;;;;;5027739;28;20797;-73
2022/11/30 13:18:23;;;;;;;43.23;23.03;;;;;;;;;;5022900;28;20454;-73
2022/11/30 13:20:50;;;;;;;41.97;21.93;;;;;;;;;;5043934;28;20432;-74
2022/11/30 13:23:20;;;;;;;47.67;23.10;;;;;;;;;;5026941;28;20430;-72
2022/11/30 13:25:47;;;;;;;46.97;22.33;;;;;;;;;;4991614;28;20466;-73
2022/11/30 13:28:33;;;;;;;39.87;21.30;;;;;;;;;;5009593;28;20445;-70
2022/11/30 13:31:07;;;;;;;42.27;21.67;;;;;;;;;;5025197;28;20453;-73
2022/11/30 13:33:51;;;;;;;41.70;22.40;;;;;;;;;;4987590;28;20430;-71
2022/11/30 13:36:33;;;;;;;42.57;21.53;;;;;;;;;;5011213;28;20773;-71
2022/11/30 13:39:27;;;;;;;42.63;21.97;;;;;;;;;;5012407;28;20465;-76
2022/11/30 13:42:00;;;;;;;42.53;22.37;;;;;;;;;;5029003;28;20481;-73
2022/11/30 13:44:31;;;;;;;41.07;21.03;;;;;;;;;;5006604;28;20442;-75
2022/11/30 13:46:58;;;;;;;41.03;21.23;;;;;;;;;;5004833;28;20475;-77
2022/11/30 13:49:30;;;;;;;37.93;20.47;;;;;;;;;;5008693;28;20643;-75
2022/11/30 13:52:14;;;;;;;40.37;21.03;;;;;;;;;;5034280;28;20433;-76
2022/11/30 13:54:52;;;;;;;42.23;21.37;;;;;;;;;;5009889;28;20438;-77
2022/11/30 13:57:23;;;;;;;37.50;19.23;;;;;;;;;;4993773;28;20442;-77
2022/11/30 13:59:50;;;;;;;40.90;20.43;;;;;;;;;;5023620;28;20492;-74
2022/11/30 14:02:32;;;;;;;43.17;21.87;;;;;;;;;;5040333;28;20473;-77
2022/11/30 14:05:17;;;;;;;36.73;20.33;;;;;;;;;;5024716;28;20999;-75
2022/11/30 14:07:50;;;;;;;36.83;19.43;;;;;;;;;;5039058;28;20530;-75
2022/11/30 14:10:31;;;;;;;41.80;20.67;;;;;;;;;;5025807;28;20438;-76
2022/11/30 14:12:58;;;;;;;36.97;19.27;;;;;;;;;;5003980;28;20445;-75
2022/11/30 14:15:30;;;;;;;38.73;19.77;;;;;;;;;;5044848;28;20436;-73
2022/11/30 14:17:57;;;;;;;38.97;19.93;;;;;;;;;;5020985;28;20441;-73
2022/11/30 14:20:27;;;;;;;37.40;19.50;;;;;;;;;;5003699;28;20981;-75
2022/11/30 14:23:35;;;;;;;38.10;20.07;;;;;;;;;;5034030;28;20941;-74
2022/11/30 14:26:08;;;;;;;37.07;19.30;;;;;;;;;;5002846;28;21351;-73
2022/11/30 14:28:49;;;;;;;37.40;19.60;;;;;;;;;;5012227;28;21218;-72
2022/11/30 14:31:18;;;;;;;40.43;21.50;;;;;;;;;;4988440;28;20439;-72
2022/11/30 14:33:49;;;;;;;38.83;19.70;;;;;;;;;;4991758;28;21032;-71
2022/11/30 14:36:15;;;;;;;35.27;19.03;;;;;;;;;;5018820;28;20491;-75
2022/11/30 14:38:42;;;;;;;36.10;18.87;;;;;;;;;;5030712;28;20792;-77
2022/11/30 14:41:27;;;;;;;38.30;19.07;;;;;;;;;;5023853;28;20992;-72
2022/11/30 14:43:58;;;;;;;33.90;19.10;;;;;;;;;;5015412;28;21236;-71
2022/11/30 14:46:26;;;;;;;39.40;20.30;;;;;;;;;;5036353;28;21350;-75